sensor_id;sensor_type;location;lat;lon;timestamp;pressure;altitude;pressure_sealevel;temperature;humidity
48614;BME280;34408;51.426;5.444;2023-02-22T00:00:47;101489.34;;;9.70;66.86
48614;BME280;34408;51.426;5.444;2023-02-22T00:03:16;101491.19;;;9.70;66.69
48614;BME280;34408;51.426;5.444;2023-02-22T00:05:53;101489.34;;;9.70;67.08
48614;BME280;34408;51.426;5.444;2023-02-22T00:08:25;101484.19;;;9.69;67.02
48614;BME280;34408;51.426;5.444;2023-02-22T00:10:55;101486.66;;;9.70;66.55
48614;BME280;34408;51.426;5.444;2023-02-22T00:13:24;101492.22;;;9.69;66.98
48614;BME280;34408;51.426;5.444;2023-02-22T00:15:54;101486.84;;;9.69;66.90
48614;BME280;34408;51.426;5.444;2023-02-22T00:18:23;101482.53;;;9.68;66.80
48614;BME280;34408;51.426;5.444;2023-02-22T00:20:55;101472.81;;;9.67;66.84
48614;BME280;34408;51.426;5.444;2023-02-22T00:23:27;101480.03;;;9.66;67.04
48614;BME280;34408;51.426;5.444;2023-02-22T00:25:56;101477.75;;;9.63;66.77
48614;BME280;34408;51.426;5.444;2023-02-22T00:28:24;101482.28;;;9.63;67.02
48614;BME280;34408;51.426;5.444;2023-02-22T00:30:52;101472.59;;;9.62;67.12
48614;BME280;34408;51.426;5.444;2023-02-22T00:33:21;101475.28;;;9.62;67.11
48614;BME280;34408;51.426;5.444;2023-02-22T00:35:50;101468.44;;;9.59;66.64
48614;BME280;34408;51.426;5.444;2023-02-22T00:38:19;101470.31;;;9.59;66.65
48614;BME280;34408;51.426;5.444;2023-02-22T00:40:47;101464.09;;;9.58;67.12
48614;BME280;34408;51.426;5.444;2023-02-22T00:43:15;101464.09;;;9.58;66.67
48614;BME280;34408;51.426;5.444;2023-02-22T00:45:42;101467.81;;;9.57;66.88
48614;BME280;34408;51.426;5.444;2023-02-22T00:48:10;101460.78;;;9.56;67.27
48614;BME280;34408;51.426;5.444;2023-02-22T00:50:38;101463.47;;;9.56;66.88
48614;BME280;34408;51.426;5.444;2023-02-22T00:53:06;101460.38;;;9.53;66.98
48614;BME280;34408;51.426;5.444;2023-02-22T00:55:36;101458.31;;;9.55;67.03
48614;BME280;34408;51.426;5.444;2023-02-22T00:58:05;101452.94;;;9.55;67.06
48614;BME280;34408;51.426;5.444;2023-02-22T01:00:35;101451.50;;;9.52;67.47
48614;BME280;34408;51.426;5.444;2023-02-22T01:03:03;101452.31;;;9.53;66.97
48614;BME280;34408;51.426;5.444;2023-02-22T01:05:32;101457.69;;;9.53;67.42
48614;BME280;34408;51.426;5.444;2023-02-22T01:08:01;101449.00;;;9.51;67.42
48614;BME280;34408;51.426;5.444;2023-02-22T01:10:32;101439.94;;;9.52;67.43
48614;BME280;34408;51.426;5.444;2023-02-22T01:13:02;101446.31;;;9.51;67.40
48614;BME280;34408;51.426;5.444;2023-02-22T01:15:36;101438.28;;;9.51;67.08
48614;BME280;34408;51.426;5.444;2023-02-22T01:18:04;101434.97;;;9.49;67.63
48614;BME280;34408;51.426;5.444;2023-02-22T01:20:32;101440.31;;;9.49;67.46
48614;BME280;34408;51.426;5.444;2023-02-22T01:23:01;101434.34;;;9.46;67.06
48614;BME280;34408;51.426;5.444;2023-02-22T01:25:32;101436.19;;;9.46;67.14
48614;BME280;34408;51.426;5.444;2023-02-22T01:28:04;101431.66;;;9.46;67.57
48614;BME280;34408;51.426;5.444;2023-02-22T01:30:33;101432.47;;;9.47;67.19
48614;BME280;34408;51.426;5.444;2023-02-22T01:33:04;101426.28;;;9.46;67.30
48614;BME280;34408;51.426;5.444;2023-02-22T01:35:34;101432.47;;;9.47;67.46
48614;BME280;34408;51.426;5.444;2023-02-22T01:38:03;101424.44;;;9.47;67.32
48614;BME280;34408;51.426;5.444;2023-02-22T01:40:32;101428.97;;;9.46;67.24
48614;BME280;34408;51.426;5.444;2023-02-22T01:43:04;101423.41;;;9.48;67.23
48614;BME280;34408;51.426;5.444;2023-02-22T01:45:54;101427.13;;;9.47;67.03
48614;BME280;34408;51.426;5.444;2023-02-22T01:48:37;101418.03;;;9.48;67.43
48614;BME280;34408;51.426;5.444;2023-02-22T01:51:08;101415.34;;;9.48;67.25
48614;BME280;34408;51.426;5.444;2023-02-22T01:53:42;101414.72;;;9.46;67.23
48614;BME280;34408;51.426;5.444;2023-02-22T01:56:13;101413.06;;;9.45;67.52
48614;BME280;34408;51.426;5.444;2023-02-22T01:58:45;101407.72;;;9.45;67.63
48614;BME280;34408;51.426;5.444;2023-02-22T02:01:15;101407.06;;;9.43;67.71
48614;BME280;34408;51.426;5.444;2023-02-22T02:03:45;101403.38;;;9.44;67.14
48614;BME280;34408;51.426;5.444;2023-02-22T02:06:15;101396.34;;;9.43;67.27
48614;BME280;34408;51.426;5.444;2023-02-22T02:08:49;101392.00;;;9.42;67.44
48614;BME280;34408;51.426;5.444;2023-02-22T02:11:21;101390.16;;;9.42;67.50
48614;BME280;34408;51.426;5.444;2023-02-22T02:13:53;101396.53;;;9.41;67.56
48614;BME280;34408;51.426;5.444;2023-02-22T02:16:23;101397.38;;;9.42;67.58
48614;BME280;34408;51.426;5.444;2023-02-22T02:18:53;101395.72;;;9.41;67.79
48614;BME280;34408;51.426;5.444;2023-02-22T02:24:50;101377.34;;;9.38;67.40
48614;BME280;34408;51.426;5.444;2023-02-22T02:27:24;101381.88;;;9.37;67.73
48614;BME280;34408;51.426;5.444;2023-02-22T02:30:33;101380.44;;;9.35;67.82
48614;BME280;34408;51.426;5.444;2023-02-22T02:33:10;101379.59;;;9.34;67.97
48614;BME280;34408;51.426;5.444;2023-02-22T02:35:47;101376.09;;;9.34;68.14
48614;BME280;34408;51.426;5.444;2023-02-22T02:38:24;101373.41;;;9.34;68.04
48614;BME280;34408;51.426;5.444;2023-02-22T02:41:04;101372.78;;;9.32;67.96
48614;BME280;34408;51.426;5.444;2023-02-22T02:43:37;101378.97;;;9.32;67.49
48614;BME280;34408;51.426;5.444;2023-02-22T02:46:11;101380.00;;;9.31;67.87
48614;BME280;34408;51.426;5.444;2023-02-22T02:48:45;101369.28;;;9.31;67.56
48614;BME280;34408;51.426;5.444;2023-02-22T02:51:16;101371.31;;;9.29;68.05
48614;BME280;34408;51.426;5.444;2023-02-22T02:53:47;101372.34;;;9.28;67.93
48614;BME280;34408;51.426;5.444;2023-02-22T02:56:17;101368.03;;;9.27;67.73
48614;BME280;34408;51.426;5.444;2023-02-22T02:58:46;101371.53;;;9.28;68.06
48614;BME280;34408;51.426;5.444;2023-02-22T03:01:21;101365.34;;;9.27;68.21
48614;BME280;34408;51.426;5.444;2023-02-22T03:04:09;101364.50;;;9.27;67.72
48614;BME280;34408;51.426;5.444;2023-02-22T03:07:02;101360.16;;;9.26;68.13
48614;BME280;34408;51.426;5.444;2023-02-22T03:09:40;101357.50;;;9.26;67.71
48614;BME280;34408;51.426;5.444;2023-02-22T03:12:20;101363.06;;;9.24;67.64
48614;BME280;34408;51.426;5.444;2023-02-22T03:15:04;101364.72;;;9.25;68.36
48614;BME280;34408;51.426;5.444;2023-02-22T03:17:40;101361.00;;;9.26;67.80
48614;BME280;34408;51.426;5.444;2023-02-22T03:20:17;101342.44;;;9.25;67.72
48614;BME280;34408;51.426;5.444;2023-02-22T03:22:51;101345.94;;;9.25;67.43
48614;BME280;34408;51.426;5.444;2023-02-22T03:25:28;101337.25;;;9.23;68.00
48614;BME280;34408;51.426;5.444;2023-02-22T03:28:00;101337.25;;;9.23;67.75
48614;BME280;34408;51.426;5.444;2023-02-22T03:30:33;101329.22;;;9.23;67.72
48614;BME280;34408;51.426;5.444;2023-02-22T03:33:05;101323.03;;;9.23;67.62
48614;BME280;34408;51.426;5.444;2023-02-22T03:35:37;101318.69;;;9.22;68.00
48614;BME280;34408;51.426;5.444;2023-02-22T03:38:09;101316.84;;;9.22;68.08
48614;BME280;34408;51.426;5.444;2023-02-22T03:40:40;101316.00;;;9.22;67.39
48614;BME280;34408;51.426;5.444;2023-02-22T03:43:13;101313.13;;;9.23;67.93
48614;BME280;34408;51.426;5.444;2023-02-22T03:45:44;101306.94;;;9.23;67.33
48614;BME280;34408;51.426;5.444;2023-02-22T03:48:16;101299.91;;;9.22;67.68
48614;BME280;34408;51.426;5.444;2023-02-22T03:50:48;101295.38;;;9.22;67.67
48614;BME280;34408;51.426;5.444;2023-02-22T03:53:17;101294.56;;;9.22;67.70
48614;BME280;34408;51.426;5.444;2023-02-22T03:55:49;101291.03;;;9.21;67.43
48614;BME280;34408;51.426;5.444;2023-02-22T03:58:20;101289.19;;;9.22;68.00
48614;BME280;34408;51.426;5.444;2023-02-22T04:00:49;101278.66;;;9.20;67.72
48614;BME280;34408;51.426;5.444;2023-02-22T04:03:19;101285.88;;;9.20;68.04
48614;BME280;34408;51.426;5.444;2023-02-22T04:05:48;101274.53;;;9.18;67.61
48614;BME280;34408;51.426;5.444;2023-02-22T04:08:16;101280.72;;;9.18;67.63
48614;BME280;34408;51.426;5.444;2023-02-22T04:10:44;101277.22;;;9.18;67.86
48614;BME280;34408;51.426;5.444;2023-02-22T04:13:12;101269.38;;;9.16;68.30
48614;BME280;34408;51.426;5.444;2023-02-22T04:15:40;101271.22;;;9.16;67.75
48614;BME280;34408;51.426;5.444;2023-02-22T04:18:08;101275.75;;;9.15;67.69
48614;BME280;34408;51.426;5.444;2023-02-22T04:20:35;101273.28;;;9.13;67.68
48614;BME280;34408;51.426;5.444;2023-02-22T04:23:05;101270.59;;;9.13;68.19
48614;BME280;34408;51.426;5.444;2023-02-22T04:25:32;101258.22;;;9.12;68.32
48614;BME280;34408;51.426;5.444;2023-02-22T04:28:00;101271.63;;;9.12;68.34
48614;BME280;34408;51.426;5.444;2023-02-22T04:30:28;101273.69;;;9.10;68.15
48614;BME280;34408;51.426;5.444;2023-02-22T04:32:56;101268.31;;;9.10;68.16
48614;BME280;34408;51.426;5.444;2023-02-22T04:35:24;101273.06;;;9.08;67.92
48614;BME280;34408;51.426;5.444;2023-02-22T04:37:51;101275.53;;;9.10;67.79
48614;BME280;34408;51.426;5.444;2023-02-22T04:40:20;101267.50;;;9.10;68.25
48614;BME280;34408;51.426;5.444;2023-02-22T04:42:48;101266.66;;;9.09;68.27
48614;BME280;34408;51.426;5.444;2023-02-22T04:45:16;101264.00;;;9.09;68.29
48614;BME280;34408;51.426;5.444;2023-02-22T04:47:44;101268.94;;;9.06;67.97
48614;BME280;34408;51.426;5.444;2023-02-22T04:50:13;101262.53;;;9.07;68.20
48614;BME280;34408;51.426;5.444;2023-02-22T04:52:41;101262.53;;;9.07;68.04
48614;BME280;34408;51.426;5.444;2023-02-22T04:55:09;101254.50;;;9.07;68.41
48614;BME280;34408;51.426;5.444;2023-02-22T04:57:38;101256.16;;;9.08;68.09
48614;BME280;34408;51.426;5.444;2023-02-22T05:00:07;101258.19;;;9.06;67.79
48614;BME280;34408;51.426;5.444;2023-02-22T05:02:37;101256.56;;;9.05;68.22
48614;BME280;34408;51.426;5.444;2023-02-22T05:05:05;101250.38;;;9.04;68.49
48614;BME280;34408;51.426;5.444;2023-02-22T05:07:33;101243.34;;;9.03;67.73
48614;BME280;34408;51.426;5.444;2023-02-22T05:10:01;101240.88;;;9.02;67.93
48614;BME280;34408;51.426;5.444;2023-02-22T05:12:29;101240.88;;;9.02;68.36
48614;BME280;34408;51.426;5.444;2023-02-22T05:14:58;101235.50;;;9.02;67.87
48614;BME280;34408;51.426;5.444;2023-02-22T05:17:26;101229.31;;;9.01;68.14
48614;BME280;34408;51.426;5.444;2023-02-22T05:19:54;101225.81;;;9.01;68.03
48614;BME280;34408;51.426;5.444;2023-02-22T05:22:21;101228.50;;;9.01;68.35
48614;BME280;34408;51.426;5.444;2023-02-22T05:24:49;101215.28;;;8.99;67.83
48614;BME280;34408;51.426;5.444;2023-02-22T05:27:18;101219.41;;;9.02;68.13
48614;BME280;34408;51.426;5.444;2023-02-22T05:29:46;101212.22;;;9.02;67.67
48614;BME280;34408;51.426;5.444;2023-02-22T05:32:15;101214.06;;;9.02;68.25
48614;BME280;34408;51.426;5.444;2023-02-22T05:34:42;101213.03;;;9.03;68.19
48614;BME280;34408;51.426;5.444;2023-02-22T05:37:11;101210.34;;;9.03;68.06
48614;BME280;34408;51.426;5.444;2023-02-22T05:39:38;101210.56;;;9.01;67.83
48614;BME280;34408;51.426;5.444;2023-02-22T05:42:06;101211.19;;;9.03;67.85
48614;BME280;34408;51.426;5.444;2023-02-22T05:44:34;101201.47;;;9.02;67.92
48614;BME280;34408;51.426;5.444;2023-02-22T05:47:01;101196.31;;;9.01;67.94
48614;BME280;34408;51.426;5.444;2023-02-22T05:49:31;101202.50;;;9.01;68.03
48614;BME280;34408;51.426;5.444;2023-02-22T05:51:59;101199.84;;;9.01;68.09
48614;BME280;34408;51.426;5.444;2023-02-22T05:54:26;101200.03;;;9.00;67.91
48614;BME280;34408;51.426;5.444;2023-02-22T05:56:54;101188.47;;;8.99;67.90
48614;BME280;34408;51.426;5.444;2023-02-22T05:59:22;101193.84;;;8.99;68.42
48614;BME280;34408;51.426;5.444;2023-02-22T06:01:49;101186.84;;;8.98;68.31
48614;BME280;34408;51.426;5.444;2023-02-22T06:04:17;101171.56;;;8.99;68.39
48614;BME280;34408;51.426;5.444;2023-02-22T06:06:47;101168.06;;;8.98;68.24
48614;BME280;34408;51.426;5.444;2023-02-22T06:09:14;101163.13;;;8.95;67.88
48614;BME280;34408;51.426;5.444;2023-02-22T06:11:42;101163.13;;;8.95;68.06
48614;BME280;34408;51.426;5.444;2023-02-22T06:14:10;101157.94;;;8.94;68.28
48614;BME280;34408;51.426;5.444;2023-02-22T06:16:38;101157.34;;;8.92;67.99
48614;BME280;34408;51.426;5.444;2023-02-22T06:19:05;101156.31;;;8.93;68.10
48614;BME280;34408;51.426;5.444;2023-02-22T06:21:33;101157.34;;;8.92;67.66
48614;BME280;34408;51.426;5.444;2023-02-22T06:24:02;101150.31;;;8.91;67.71
48614;BME280;34408;51.426;5.444;2023-02-22T06:26:30;101140.44;;;8.91;68.21
48614;BME280;34408;51.426;5.444;2023-02-22T06:28:58;101141.25;;;8.92;68.39
48614;BME280;34408;51.426;5.444;2023-02-22T06:31:26;101142.28;;;8.91;67.62
48614;BME280;34408;51.426;5.444;2023-02-22T06:33:53;101140.63;;;8.90;67.91
48614;BME280;34408;51.426;5.444;2023-02-22T06:36:21;101142.47;;;8.89;68.33
48614;BME280;34408;51.426;5.444;2023-02-22T06:38:49;101142.47;;;8.89;68.46
48614;BME280;34408;51.426;5.444;2023-02-22T06:41:18;101135.47;;;8.88;67.83
48614;BME280;34408;51.426;5.444;2023-02-22T06:43:46;101144.34;;;8.89;68.14
48614;BME280;34408;51.426;5.444;2023-02-22T06:46:14;101145.38;;;8.88;67.98
48614;BME280;34408;51.426;5.444;2023-02-22T06:48:42;101148.88;;;8.88;67.99
48614;BME280;34408;51.426;5.444;2023-02-22T06:51:09;101149.69;;;8.89;67.88
48614;BME280;34408;51.426;5.444;2023-02-22T06:53:37;101149.91;;;8.87;68.28
48614;BME280;34408;51.426;5.444;2023-02-22T06:56:05;101146.38;;;8.80;68.51
48614;BME280;34408;51.426;5.444;2023-02-22T06:58:34;101150.91;;;8.79;68.21
48614;BME280;34408;51.426;5.444;2023-02-22T07:01:02;101158.75;;;8.81;68.62
48614;BME280;34408;51.426;5.444;2023-02-22T07:03:34;101152.78;;;8.79;68.06
48614;BME280;34408;51.426;5.444;2023-02-22T07:06:02;101151.94;;;8.78;68.44
48614;BME280;34408;51.426;5.444;2023-02-22T07:08:30;101151.94;;;8.78;68.03
48614;BME280;34408;51.426;5.444;2023-02-22T07:10:58;101161.84;;;8.78;67.76
48614;BME280;34408;51.426;5.444;2023-02-22T07:13:26;101152.97;;;8.77;68.48
48614;BME280;34408;51.426;5.444;2023-02-22T07:15:56;101154.81;;;8.77;68.65
48614;BME280;34408;51.426;5.444;2023-02-22T07:18:24;101153.78;;;8.78;67.90
48614;BME280;34408;51.426;5.444;2023-02-22T07:20:52;101150.28;;;8.77;68.11
48614;BME280;34408;51.426;5.444;2023-02-22T07:23:19;101158.34;;;8.77;68.59
48614;BME280;34408;51.426;5.444;2023-02-22T07:25:48;101160.19;;;8.77;67.94
48614;BME280;34408;51.426;5.444;2023-02-22T07:28:16;101165.34;;;8.78;68.38
48614;BME280;34408;51.426;5.444;2023-02-22T07:30:44;101164.72;;;8.76;67.91
48614;BME280;34408;51.426;5.444;2023-02-22T07:33:13;101167.19;;;8.78;68.53
48614;BME280;34408;51.426;5.444;2023-02-22T07:35:43;101170.69;;;8.78;68.25
48614;BME280;34408;51.426;5.444;2023-02-22T07:38:13;101167.81;;;8.80;68.13
48614;BME280;34408;51.426;5.444;2023-02-22T07:40:41;101171.31;;;8.80;68.24
48614;BME280;34408;51.426;5.444;2023-02-22T07:43:14;101176.69;;;8.80;68.23
48614;BME280;34408;51.426;5.444;2023-02-22T07:45:42;101174.22;;;8.79;68.38
48614;BME280;34408;51.426;5.444;2023-02-22T07:48:11;101182.25;;;8.79;68.24
48614;BME280;34408;51.426;5.444;2023-02-22T07:50:43;101184.72;;;8.80;68.54
48614;BME280;34408;51.426;5.444;2023-02-22T07:53:13;101177.72;;;8.79;68.52
48614;BME280;34408;51.426;5.444;2023-02-22T07:55:41;101184.94;;;8.79;68.56
48614;BME280;34408;51.426;5.444;2023-02-22T07:58:12;101178.75;;;8.78;68.03
48614;BME280;34408;51.426;5.444;2023-02-22T08:00:41;101183.47;;;8.76;68.16
48614;BME280;34408;51.426;5.444;2023-02-22T08:03:12;101183.28;;;8.78;68.61
48614;BME280;34408;51.426;5.444;2023-02-22T08:05:41;101182.44;;;8.77;68.19
48614;BME280;34408;51.426;5.444;2023-02-22T08:08:11;101180.78;;;8.76;67.87
48614;BME280;34408;51.426;5.444;2023-02-22T08:10:40;101181.63;;;8.77;68.68
48614;BME280;34408;51.426;5.444;2023-02-22T08:13:08;101173.59;;;8.77;68.36
48614;BME280;34408;51.426;5.444;2023-02-22T08:15:37;101177.91;;;8.78;68.51
48614;BME280;34408;51.426;5.444;2023-02-22T08:18:06;101162.66;;;8.72;68.28
48614;BME280;34408;51.426;5.444;2023-02-22T08:20:35;101163.06;;;8.75;68.56
48614;BME280;34408;51.426;5.444;2023-02-22T08:23:03;101167.59;;;8.75;68.08
48614;BME280;34408;51.426;5.444;2023-02-22T08:25:33;101166.38;;;8.77;68.05
48614;BME280;34408;51.426;5.444;2023-02-22T08:28:03;101170.91;;;8.77;68.86
48614;BME280;34408;51.426;5.444;2023-02-22T08:30:32;101169.88;;;8.78;68.29
48614;BME280;34408;51.426;5.444;2023-02-22T08:33:05;101171.31;;;8.80;67.98
48614;BME280;34408;51.426;5.444;2023-02-22T08:35:33;101170.09;;;8.83;68.62
48614;BME280;34408;51.426;5.444;2023-02-22T08:38:03;101171.53;;;8.86;68.12
48614;BME280;34408;51.426;5.444;2023-02-22T08:40:34;101180.22;;;8.88;67.92
48614;BME280;34408;51.426;5.444;2023-02-22T08:43:02;101171.34;;;8.87;67.88
48614;BME280;34408;51.426;5.444;2023-02-22T08:45:31;101168.66;;;8.87;68.54
48614;BME280;34408;51.426;5.444;2023-02-22T08:47:59;101159.78;;;8.87;67.96
48614;BME280;34408;51.426;5.444;2023-02-22T08:50:29;101161.66;;;8.86;68.02
48614;BME280;34408;51.426;5.444;2023-02-22T08:52:59;101157.13;;;8.87;68.11
48614;BME280;34408;51.426;5.444;2023-02-22T08:55:29;101158.97;;;8.86;68.09
48614;BME280;34408;51.426;5.444;2023-02-22T08:57:59;101156.28;;;8.86;68.60
48614;BME280;34408;51.426;5.444;2023-02-22T09:00:30;101160.81;;;8.86;68.54
48614;BME280;34408;51.426;5.444;2023-02-22T09:02:59;101151.56;;;8.88;68.16
48614;BME280;34408;51.426;5.444;2023-02-22T09:05:27;101153.00;;;8.97;68.25
48614;BME280;34408;51.426;5.444;2023-02-22T09:07:57;101155.09;;;9.15;68.03
48614;BME280;34408;51.426;5.444;2023-02-22T09:10:26;101146.03;;;9.29;66.97
48614;BME280;34408;51.426;5.444;2023-02-22T09:12:55;101139.00;;;9.48;66.84
48614;BME280;34408;51.426;5.444;2023-02-22T09:15:25;101140.44;;;9.64;65.91
48614;BME280;34408;51.426;5.444;2023-02-22T09:17:53;101138.16;;;9.81;65.82
48614;BME280;34408;51.426;5.444;2023-02-22T09:20:22;101128.19;;;9.94;64.90
48614;BME280;34408;51.426;5.444;2023-02-22T09:22:50;101126.09;;;10.09;64.93
48614;BME280;34408;51.426;5.444;2023-02-22T09:25:19;101125.88;;;10.24;64.54
48614;BME280;34408;51.426;5.444;2023-02-22T09:27:48;101129.25;;;10.44;63.73
48614;BME280;34408;51.426;5.444;2023-02-22T09:30:19;101116.78;;;10.57;63.25
48614;BME280;34408;51.426;5.444;2023-02-22T09:32:52;101099.97;;;10.68;62.82
48614;BME280;34408;51.426;5.444;2023-02-22T09:35:21;101108.84;;;10.75;62.92
48614;BME280;34408;51.426;5.444;2023-02-22T09:37:53;101110.47;;;10.76;62.70
48614;BME280;34408;51.426;5.444;2023-02-22T09:40:23;101103.06;;;10.71;62.99
48614;BME280;34408;51.426;5.444;2023-02-22T09:45:56;101123.34;;;10.67;63.25
48614;BME280;34408;51.426;5.444;2023-02-22T09:48:30;101118.41;;;10.64;63.52
48614;BME280;34408;51.426;5.444;2023-02-22T09:51:02;101116.41;;;10.53;63.96
48614;BME280;34408;51.426;5.444;2023-02-22T09:53:37;101115.22;;;10.42;64.04
48614;BME280;34408;51.426;5.444;2023-02-22T09:56:09;101117.56;;;10.32;64.63
48614;BME280;34408;51.426;5.444;2023-02-22T09:58:38;101110.19;;;10.21;65.20
48614;BME280;34408;51.426;5.444;2023-02-22T10:01:17;101120.28;;;10.13;65.60
48614;BME280;34408;51.426;5.444;2023-02-22T10:03:57;101113.31;;;10.05;65.75
48614;BME280;34408;51.426;5.444;2023-02-22T10:06:27;101112.91;;;10.01;66.29
48614;BME280;34408;51.426;5.444;2023-02-22T10:08:59;101117.25;;;9.96;66.39
48614;BME280;34408;51.426;5.444;2023-02-22T10:11:49;101106.31;;;9.91;66.42
48614;BME280;34408;51.426;5.444;2023-02-22T10:17:23;101113.34;;;9.85;66.75
48614;BME280;34408;51.426;5.444;2023-02-22T10:20:06;101108.19;;;9.84;67.02
48614;BME280;34408;51.426;5.444;2023-02-22T10:22:51;101105.72;;;9.82;66.99
48614;BME280;34408;51.426;5.444;2023-02-22T10:25:25;101099.31;;;9.83;67.25
48614;BME280;34408;51.426;5.444;2023-02-22T10:27:56;101106.56;;;9.83;67.62
48614;BME280;34408;51.426;5.444;2023-02-22T10:30:27;101102.22;;;9.82;67.55
48614;BME280;34408;51.426;5.444;2023-02-22T10:33:05;101097.06;;;9.80;67.38
48614;BME280;34408;51.426;5.444;2023-02-22T10:35:38;101115.84;;;9.80;68.07
48614;BME280;34408;51.426;5.444;2023-02-22T10:38:13;101112.34;;;9.79;67.65
48614;BME280;34408;51.426;5.444;2023-02-22T10:40:43;101110.47;;;9.80;67.76
48614;BME280;34408;51.426;5.444;2023-02-22T10:43:13;101111.50;;;9.79;67.99
48614;BME280;34408;51.426;5.444;2023-02-22T10:45:40;101094.38;;;9.80;67.79
48614;BME280;34408;51.426;5.444;2023-02-22T10:48:11;101100.56;;;9.81;67.96
48614;BME280;34408;51.426;5.444;2023-02-22T10:50:43;101092.53;;;9.74;67.84
48614;BME280;34408;51.426;5.444;2023-02-22T10:53:12;101103.25;;;9.81;67.99
48614;BME280;34408;51.426;5.444;2023-02-22T10:56:06;101097.88;;;9.81;68.07
48614;BME280;34408;51.426;5.444;2023-02-22T10:58:46;101097.47;;;9.84;68.25
48614;BME280;34408;51.426;5.444;2023-02-22T11:01:34;101099.06;;;9.98;68.82
48614;BME280;34408;51.426;5.444;2023-02-22T11:04:04;101093.69;;;9.98;68.16
48614;BME280;34408;51.426;5.444;2023-02-22T11:06:36;101094.31;;;10.00;67.92
48614;BME280;34408;51.426;5.444;2023-02-22T11:09:08;101095.97;;;10.01;68.37
48614;BME280;34408;51.426;5.444;2023-02-22T11:11:39;101087.69;;;10.02;68.28
48614;BME280;34408;51.426;5.444;2023-02-22T11:14:08;101084.81;;;10.04;68.25
48614;BME280;34408;51.426;5.444;2023-02-22T11:16:39;101091.00;;;10.04;68.38
48614;BME280;34408;51.426;5.444;2023-02-22T11:19:17;101086.44;;;10.05;68.62
48614;BME280;34408;51.426;5.444;2023-02-22T11:21:48;101088.09;;;10.06;68.06
48614;BME280;34408;51.426;5.444;2023-02-22T11:24:20;101087.88;;;10.07;68.37
48614;BME280;34408;51.426;5.444;2023-02-22T11:26:53;101083.31;;;10.21;67.98
48614;BME280;34408;51.426;5.444;2023-02-22T11:29:26;101086.94;;;10.40;67.55
48614;BME280;34408;51.426;5.444;2023-02-22T11:31:57;101074.41;;;10.59;66.56
48614;BME280;34408;51.426;5.444;2023-02-22T11:34:33;101073.84;;;10.82;66.41
48614;BME280;34408;51.426;5.444;2023-02-22T11:37:28;101073.69;;;11.01;65.58
48614;BME280;34408;51.426;5.444;2023-02-22T11:40:12;101071.78;;;11.08;65.27
48614;BME280;34408;51.426;5.444;2023-02-22T11:42:43;101077.16;;;11.08;65.63
48614;BME280;34408;51.426;5.444;2023-02-22T11:45:13;101069.75;;;11.04;65.56
48614;BME280;34408;51.426;5.444;2023-02-22T11:47:48;101063.81;;;10.95;65.77
48614;BME280;34408;51.426;5.444;2023-02-22T11:50:29;101058.91;;;10.86;66.11
48614;BME280;34408;51.426;5.444;2023-02-22T11:53:11;101058.97;;;10.79;66.56
48614;BME280;34408;51.426;5.444;2023-02-22T11:55:50;101062.53;;;10.73;66.83
48614;BME280;34408;51.426;5.444;2023-02-22T11:58:32;101056.16;;;10.67;67.31
48614;BME280;34408;51.426;5.444;2023-02-22T12:01:07;101051.59;;;10.68;67.14
48614;BME280;34408;51.426;5.444;2023-02-22T12:04:12;101045.00;;;10.64;67.28
48614;BME280;34408;51.426;5.444;2023-02-22T12:06:52;101044.19;;;10.63;67.30
48614;BME280;34408;51.426;5.444;2023-02-22T12:09:31;101042.31;;;10.64;67.60
48614;BME280;34408;51.426;5.444;2023-02-22T12:12:10;101042.31;;;10.64;67.58
48614;BME280;34408;51.426;5.444;2023-02-22T12:14:49;101038.38;;;10.66;67.53
48614;BME280;34408;51.426;5.444;2023-02-22T12:17:31;101023.28;;;10.65;67.74
48614;BME280;34408;51.426;5.444;2023-02-22T12:20:11;101029.72;;;10.64;67.74
48614;BME280;34408;51.426;5.444;2023-02-22T12:22:51;101023.72;;;10.62;68.10
48614;BME280;34408;51.426;5.444;2023-02-22T12:25:24;101022.31;;;10.60;68.10
48614;BME280;34408;51.426;5.444;2023-02-22T12:27:56;101023.13;;;10.60;68.21
48614;BME280;34408;51.426;5.444;2023-02-22T12:30:29;101022.72;;;10.57;68.37
48614;BME280;34408;51.426;5.444;2023-02-22T12:33:04;101025.19;;;10.58;68.25
48614;BME280;34408;51.426;5.444;2023-02-22T12:35:37;101017.13;;;10.58;68.06
48614;BME280;34408;51.426;5.444;2023-02-22T12:38:13;101021.69;;;10.58;68.01
48614;BME280;34408;51.426;5.444;2023-02-22T12:40:55;101030.78;;;10.57;67.83
48614;BME280;34408;51.426;5.444;2023-02-22T12:43:32;101038.03;;;10.56;68.38
48614;BME280;34408;51.426;5.444;2023-02-22T12:46:07;101034.13;;;10.52;68.40
48614;BME280;34408;51.426;5.444;2023-02-22T12:48:42;101039.06;;;10.55;68.55
48614;BME280;34408;51.426;5.444;2023-02-22T12:51:22;101043.63;;;10.55;68.48
48614;BME280;34408;51.426;5.444;2023-02-22T12:53:56;101039.06;;;10.55;68.65
48614;BME280;34408;51.426;5.444;2023-02-22T12:56:31;101038.25;;;10.55;68.81
48614;BME280;34408;51.426;5.444;2023-02-22T12:59:06;101036.38;;;10.55;68.76
48614;BME280;34408;51.426;5.444;2023-02-22T13:01:39;101045.28;;;10.56;69.11
48614;BME280;34408;51.426;5.444;2023-02-22T13:04:09;101044.44;;;10.55;69.03
48614;BME280;34408;51.426;5.444;2023-02-22T13:06:56;101045.28;;;10.56;69.18
48614;BME280;34408;51.426;5.444;2023-02-22T13:09:56;101041.53;;;10.57;69.22
48614;BME280;34408;51.426;5.444;2023-02-22T13:12:38;101045.66;;;10.59;69.25
48614;BME280;34408;51.426;5.444;2023-02-22T13:15:13;101043.72;;;10.73;69.06
48614;BME280;34408;51.426;5.444;2023-02-22T13:17:49;101040.47;;;10.89;68.50
48614;BME280;34408;51.426;5.444;2023-02-22T13:20:22;101034.94;;;11.09;67.98
48614;BME280;34408;51.426;5.444;2023-02-22T13:22:56;101034.97;;;11.27;66.98
48614;BME280;34408;51.426;5.444;2023-02-22T13:25:35;101034.19;;;11.45;66.54
48614;BME280;34408;51.426;5.444;2023-02-22T13:28:18;101028.59;;;11.65;66.07
48614;BME280;34408;51.426;5.444;2023-02-22T13:30:59;101024.50;;;11.81;65.09